»·PEaware :: N106ST KMRY-KHWD

N106ST :: KMRY-KHWD

FLIGHT INFORMATION

Flight Status: Arrived
Operator: Privately registered:
United States
More flights under this callsign
Pilot: Simtech Aviation (25217)
Aircraft: CESSNA 206 STATIONAIR
(C206)
More flights by this aircraft type
Origin: KMRY Monterey Peninsula
United States
Destination: KHWD Hayward Executive
United States
More flights between these airports :: More routes between these airports
Route: +MRY5 SNS V111 KARNN V301 SUNOL
File this flight plan on PilotEdge
Remarks: +CW /
Altitude:
(Current/Filed)
8,000ft
Speed:
(Current/Filed)
160kts
Departed: 20-Sep-19 07:07 AM
Arrived: 20-Sep-19 07:50 AM
Distance/Time
Traveled:
66nm/0:43
Distance/Time
To Go:
Arrived

Flight Plot

Page will automatically refresh every two minutes.

Flight plan parsing failed; only flown route is shown


Map Options




Map Legend


Flown Route
Filed Route
Departure Airport
Arrival Airport
Navaid (VOR, NDB)
Fix

Horizontal Profiles

Position Reports

Time Latitude Longitude Heading Altitude Ground
Speed
20-Sep-19 06:50 36.587924 -121.840351 129 213ft 0kts
20-Sep-19 06:51 36.587924 -121.840351 129 213ft 0kts
20-Sep-19 06:52 36.587924 -121.840351 129 213ft 0kts
20-Sep-19 06:53 36.587924 -121.840351 129 213ft 0kts
20-Sep-19 06:54 36.587924 -121.840351 129 213ft 0kts
20-Sep-19 06:55 36.587924 -121.840351 129 213ft 0kts
20-Sep-19 06:56 36.587924 -121.840351 129 213ft 0kts
20-Sep-19 06:57 36.587924 -121.840351 129 213ft 0kts
20-Sep-19 06:58 36.587924 -121.840351 129 213ft 0kts
20-Sep-19 06:59 36.587924 -121.840351 129 213ft 0kts
20-Sep-19 07:00 36.587924 -121.840351 129 213ft 0kts
20-Sep-19 07:01 36.587924 -121.840351 129 213ft 0kts
20-Sep-19 07:02 36.586747 -121.837917 111 228ft 21kts
20-Sep-19 07:03 36.585325 -121.833749 140 231ft 0kts
20-Sep-19 07:05 36.585325 -121.833749 140 231ft 0kts
20-Sep-19 07:06 36.585318 -121.833742 141 231ft 0kts
20-Sep-19 07:07 36.585943 -121.836896 294 240ft 64kts
20-Sep-19 07:08 36.594392 -121.858730 324 1542ft 76kts
20-Sep-19 07:09 36.616982 -121.867022 341 2767ft 95kts
20-Sep-19 07:10 36.644316 -121.876575 341 3893ft 112kts
20-Sep-19 07:11 36.674788 -121.888244 341 5043ft 116kts
20-Sep-19 07:12 36.706342 -121.896669 353 6204ft 117kts
20-Sep-19 07:13 36.738337 -121.902115 353 7345ft 117kts
20-Sep-19 07:14 36.773402 -121.907915 353 7908ft 148kts
20-Sep-19 07:15 36.815842 -121.914726 353 7900ft 158kts
20-Sep-19 07:16 36.859143 -121.921662 353 7903ft 158kts
20-Sep-19 07:17 36.902874 -121.928662 353 7900ft 158kts
20-Sep-19 07:18 36.946566 -121.935662 353 7900ft 158kts
20-Sep-19 07:19 36.990121 -121.942614 353 7900ft 158kts
20-Sep-19 07:20 37.033756 -121.949575 353 7900ft 158kts
20-Sep-19 07:21 37.077026 -121.956483 353 7900ft 158kts
20-Sep-19 07:22 37.120394 -121.963393 353 7900ft 158kts
20-Sep-19 07:23 37.163546 -121.962736 4 7900ft 158kts
20-Sep-19 07:24 37.207513 -121.959452 4 7900ft 158kts
20-Sep-19 07:25 37.251257 -121.955651 5 7870ft 160kts
20-Sep-19 07:26 37.296592 -121.951676 5 7142ft 163kts
20-Sep-19 07:26 37.333881 -121.948419 5 6549ft 163kts
20-Sep-19 07:28 37.383108 -121.933886 47 5900ft 152kts
20-Sep-19 07:28 37.407011 -121.902804 47 5902ft 151kts
20-Sep-19 07:29 37.436815 -121.863862 47 5900ft 155kts
20-Sep-19 07:31 37.471922 -121.817963 47 5900ft 156kts
20-Sep-19 07:31 37.496935 -121.785199 47 5706ft 157kts
20-Sep-19 07:32 37.517475 -121.744653 107 5586ft 133kts
20-Sep-19 07:33 37.498609 -121.706922 124 5599ft 127kts
20-Sep-19 07:34 37.478769 -121.670032 136 5600ft 126kts
20-Sep-19 07:35 37.459190 -121.688059 294 5605ft 126kts
20-Sep-19 07:36 37.477098 -121.726404 299 5602ft 126kts
20-Sep-19 07:37 37.494400 -121.764020 299 5591ft 123kts
20-Sep-19 07:38 37.511058 -121.800365 299 5430ft 126kts
20-Sep-19 07:39 37.529233 -121.839737 298 4691ft 133kts
20-Sep-19 07:40 37.547301 -121.879034 298 4076ft 127kts
20-Sep-19 07:41 37.563787 -121.915060 297 3789ft 104kts
20-Sep-19 07:42 37.578487 -121.946903 297 3242ft 100kts
20-Sep-19 07:43 37.591822 -121.976128 297 2660ft 93kts
20-Sep-19 07:44 37.604499 -122.003881 298 2153ft 89kts
20-Sep-19 07:45 37.616552 -122.030245 299 1633ft 86kts
20-Sep-19 07:46 37.628377 -122.056143 300 1131ft 84kts
20-Sep-19 07:47 37.639849 -122.081262 301 674ft 83kts
20-Sep-19 07:48 37.651459 -122.106462 305 245ft 83kts
20-Sep-19 07:49 37.658019 -122.119762 25 43ft 15kts

Navigation Log

Ident Type
Flight plan parsing failed, navigation log unavailable